Decoded Metar for LFRM (LE MANS in FRANCE) (IATA:LME) | Meteo·Mobile Aviation Weather
aviador You're here:

LFRM Decoded Metar

LE MANS in FRANCE
Report Time2018-10-20 17:00:00
UTC Time2018-10-20 17:10:12
Flight Rules vfr VFR
Wind040° at 05 kt
W.Decomp.*RWY 02: 4.7 kt HW 1.8 kt RCW
W.Rank040° ranks 8
Current wind is below 040° avg. (5.5)
Visibility9999 m
Phenomena:N/A
Clouds:N/A
Expected CloudBase > 3,600 ft AGL from Temp-Dew spread
CeilingNone
Temp16°C (ISA +1)
Dew Point07°C (55% RH)
AAT13.5°C
QNH1028 hPa
Density Alt-39 ft
Elevation171 ft
Report Wrong Elevation
Raw Report
METAR LFRM 201700Z AUTO 04005KT CAVOK 16/07 Q1028 NOSIG=

Extra information for LFRM:More info

Metar Taf Metar & Taf Last 4 Metars F.Rules Stats Wind Profile Meteogram Temp Stats Airport Information Weather charts Add Link Nearby VenuesMetar ALERT Operation Metar Decoded Social comments